ENAT Airport Information

Runway Information
Runway 11 Length 7165 ft width 147 ft Elevation 8 ft Threshold 674 ft Heading 121
Runway 29 Length 7165 ft Width 147 ft Elevation 7 ft Threshold 418 ft Heading 301
Airport Frequencies
Type ATIS Name ATIS Frequency 118.175 MHZ
Type TWR Name TWR Frequency 118.1 MHZ
Airport Navaids
Type NDB Name Alta Frequency 358 KHZ
Type VOR-DME Name Alta Frequency 117400 KHZ
Airport Weather Information & NOTAM
ADDS - METARS form results

(1649 UTC 01 December 2022)
Data provider http://aviationweather.gov/metar/data/
 
METAR text: ENAT 011620Z 00000KT 9999 BKN022 M02/M03 Q1037 RMK WIND 700FT VRB02KT
Conditions at: ENAT (ALTA AIRPORT , NO) observed 1620 UTC 01 December 2022
Temperature: -2.0°C (28°F)
Dewpoint: -3.0°C (27°F) [RH = 93%]
Pressure (altimeter): 30.62 inches Hg (1037.0 mb)
Winds: calm
Visibility: 6 or more miles (10+ km)
Ceiling: 2200 feet AGL
Clouds: broken clouds at 2200 feet AGL
Weather: no significant weather observed at this time

METAR text: ENAT 011550Z VRB02KT 9999 BKN024 M02/M03 Q1037 RMK WIND 700FT 20003KT
Conditions at: ENAT (ALTA AIRPORT , NO) observed 1550 UTC 01 December 2022
Temperature: -2.0°C (28°F)
Dewpoint: -3.0°C (27°F) [RH = 93%]
Pressure (altimeter): 30.62 inches Hg (1037.0 mb)
Winds: variable direction winds at 2 MPH (2 knots; 1.0 m/s)
Visibility: 6 or more miles (10+ km)
Ceiling: 2400 feet AGL
Clouds: broken clouds at 2400 feet AGL
Weather: no significant weather observed at this time

Forecast for: ENAT (ALTA AIRPORT , NO)
Text: TAF ENAT 011400Z 0115/0124 18005KT 9999 FEW010 SCT025
Forecast period: 1500 UTC 01 December 2022 to 0000 UTC 02 December 2022
Forecast type: FROM: standard forecast or significant change
Winds: from the S (180 degrees) at 6 MPH (5 knots; 2.6 m/s)
Visibility: 6 or more miles (10+ km)
Ceiling: at least 12,000 feet AGL
Clouds: few clouds at 1000 feet AGL
scattered clouds at 2500 feet AGL
Weather: no significant weather forecast for this period